sensor_id;sensor_type;location;lat;lon;timestamp;pressure;altitude;pressure_sealevel;temperature;humidity
48718;BME280;34521;33.042;-96.586;2023-11-21T00:01:40;99170.84;;;24.37;33.80
48718;BME280;34521;33.042;-96.586;2023-11-21T00:04:05;99181.18;;;24.33;33.61
48718;BME280;34521;33.042;-96.586;2023-11-21T00:06:30;99192.59;;;23.62;34.77
48718;BME280;34521;33.042;-96.586;2023-11-21T00:08:55;99197.78;;;23.92;34.53
48718;BME280;34521;33.042;-96.586;2023-11-21T00:11:20;99205.69;;;24.07;34.28
48718;BME280;34521;33.042;-96.586;2023-11-21T00:13:46;99210.21;;;24.05;34.30
48718;BME280;34521;33.042;-96.586;2023-11-21T00:16:10;99216.25;;;24.05;34.31
48718;BME280;34521;33.042;-96.586;2023-11-21T00:18:35;99223.79;;;24.17;34.06
48718;BME280;34521;33.042;-96.586;2023-11-21T00:21:00;99232.91;;;24.00;34.37
48718;BME280;34521;33.042;-96.586;2023-11-21T00:23:26;99236.06;;;24.49;33.60
48718;BME280;34521;33.042;-96.586;2023-11-21T00:25:50;99241.09;;;24.36;33.85
48718;BME280;34521;33.042;-96.586;2023-11-21T00:28:16;99250.62;;;24.49;33.64
48718;BME280;34521;33.042;-96.586;2023-11-21T00:30:40;99262.71;;;22.40;37.09
48718;BME280;34521;33.042;-96.586;2023-11-21T00:33:06;99266.62;;;21.25;38.87
48718;BME280;34521;33.042;-96.586;2023-11-21T00:35:31;99267.95;;;20.51;40.50
48718;BME280;34521;33.042;-96.586;2023-11-21T00:37:56;99268.01;;;20.30;41.20
48718;BME280;34521;33.042;-96.586;2023-11-21T00:40:21;99283.14;;;19.98;41.74
48718;BME280;34521;33.042;-96.586;2023-11-21T00:42:46;99285.48;;;22.69;37.72
48718;BME280;34521;33.042;-96.586;2023-11-21T00:45:12;99286.48;;;23.30;35.86
48718;BME280;34521;33.042;-96.586;2023-11-21T00:47:36;99291.41;;;23.45;35.22
48718;BME280;34521;33.042;-96.586;2023-11-21T00:50:01;99299.15;;;24.15;34.60
48718;BME280;34521;33.042;-96.586;2023-11-21T00:52:26;99307.25;;;23.97;34.12
48718;BME280;34521;33.042;-96.586;2023-11-21T00:54:51;99313.05;;;23.84;34.31
48718;BME280;34521;33.042;-96.586;2023-11-21T00:57:16;99321.17;;;24.09;33.93
48718;BME280;34521;33.042;-96.586;2023-11-21T00:59:42;99328.78;;;24.06;33.87
48718;BME280;34521;33.042;-96.586;2023-11-21T01:02:06;99333.03;;;24.09;33.83
48718;BME280;34521;33.042;-96.586;2023-11-21T01:04:32;99343.44;;;24.36;33.80
48718;BME280;34521;33.042;-96.586;2023-11-21T01:06:56;99343.78;;;24.31;33.56
48718;BME280;34521;33.042;-96.586;2023-11-21T01:09:21;99351.17;;;24.53;33.29
48718;BME280;34521;33.042;-96.586;2023-11-21T01:11:47;99353.01;;;24.48;33.21
48718;BME280;34521;33.042;-96.586;2023-11-21T01:14:12;99356.42;;;24.68;33.08
48718;BME280;34521;33.042;-96.586;2023-11-21T01:16:37;99363.73;;;24.64;33.08
48718;BME280;34521;33.042;-96.586;2023-11-21T01:19:02;99371.08;;;24.29;33.56
48718;BME280;34521;33.042;-96.586;2023-11-21T01:21:28;99371.54;;;24.37;33.41
48718;BME280;34521;33.042;-96.586;2023-11-21T01:23:53;99370.33;;;24.57;33.23
48718;BME280;34521;33.042;-96.586;2023-11-21T01:26:17;99382.19;;;24.61;33.14
48718;BME280;34521;33.042;-96.586;2023-11-21T01:28:43;99384.28;;;24.55;33.10
48718;BME280;34521;33.042;-96.586;2023-11-21T01:31:08;99394.08;;;22.10;37.04
48718;BME280;34521;33.042;-96.586;2023-11-21T01:33:33;99401.32;;;21.13;39.26
48718;BME280;34521;33.042;-96.586;2023-11-21T01:35:58;99407.08;;;20.06;40.85
48718;BME280;34521;33.042;-96.586;2023-11-21T01:38:23;99410.44;;;20.85;40.46
48718;BME280;34521;33.042;-96.586;2023-11-21T01:40:48;99415.35;;;20.54;40.26
48718;BME280;34521;33.042;-96.586;2023-11-21T01:43:14;99431.86;;;22.58;36.72
48718;BME280;34521;33.042;-96.586;2023-11-21T01:45:39;99433.83;;;23.84;34.60
48718;BME280;34521;33.042;-96.586;2023-11-21T01:48:04;99437.78;;;23.83;34.45
48718;BME280;34521;33.042;-96.586;2023-11-21T01:50:28;99444.28;;;23.91;34.33
48718;BME280;34521;33.042;-96.586;2023-11-21T01:52:53;99455.49;;;24.02;33.83
48718;BME280;34521;33.042;-96.586;2023-11-21T01:55:19;99458.59;;;23.92;33.93
48718;BME280;34521;33.042;-96.586;2023-11-21T01:57:43;99463.58;;;24.19;33.33
48718;BME280;34521;33.042;-96.586;2023-11-21T02:00:10;99465.46;;;24.29;33.15
48718;BME280;34521;33.042;-96.586;2023-11-21T02:02:33;99470.28;;;24.36;33.41
48718;BME280;34521;33.042;-96.586;2023-11-21T02:04:58;99473.86;;;23.89;33.62
48718;BME280;34521;33.042;-96.586;2023-11-21T02:07:24;99474.60;;;23.96;33.74
48718;BME280;34521;33.042;-96.586;2023-11-21T02:09:49;99478.63;;;24.44;32.86
48718;BME280;34521;33.042;-96.586;2023-11-21T02:12:14;99481.28;;;24.35;32.90
48718;BME280;34521;33.042;-96.586;2023-11-21T02:14:39;99488.63;;;24.43;32.78
48718;BME280;34521;33.042;-96.586;2023-11-21T02:17:04;99496.41;;;24.27;32.60
48718;BME280;34521;33.042;-96.586;2023-11-21T02:19:30;99502.22;;;24.16;33.04
48718;BME280;34521;33.042;-96.586;2023-11-21T02:21:54;99505.41;;;24.92;32.32
48718;BME280;34521;33.042;-96.586;2023-11-21T02:24:20;99512.51;;;24.39;32.64
48718;BME280;34521;33.042;-96.586;2023-11-21T02:26:44;99514.18;;;24.37;32.65
48718;BME280;34521;33.042;-96.586;2023-11-21T02:29:09;99526.28;;;22.27;35.89
48718;BME280;34521;33.042;-96.586;2023-11-21T02:31:34;99521.80;;;20.58;38.69
48718;BME280;34521;33.042;-96.586;2023-11-21T02:33:59;99522.68;;;20.17;39.72
48718;BME280;34521;33.042;-96.586;2023-11-21T02:36:24;99528.93;;;20.17;40.00
48718;BME280;34521;33.042;-96.586;2023-11-21T02:38:49;99536.52;;;19.66;40.83
48718;BME280;34521;33.042;-96.586;2023-11-21T02:41:14;99541.73;;;22.05;36.92
48718;BME280;34521;33.042;-96.586;2023-11-21T02:43:40;99547.96;;;23.45;34.58
48718;BME280;34521;33.042;-96.586;2023-11-21T02:46:05;99555.29;;;23.75;33.85
48718;BME280;34521;33.042;-96.586;2023-11-21T02:48:29;99566.44;;;23.63;33.84
48718;BME280;34521;33.042;-96.586;2023-11-21T02:50:54;99573.54;;;23.94;33.16
48718;BME280;34521;33.042;-96.586;2023-11-21T02:53:21;99577.46;;;24.00;33.04
48718;BME280;34521;33.042;-96.586;2023-11-21T02:55:44;99579.61;;;24.22;32.99
48718;BME280;34521;33.042;-96.586;2023-11-21T02:58:10;99584.80;;;23.49;33.22
48718;BME280;34521;33.042;-96.586;2023-11-21T03:00:34;99589.48;;;24.00;32.61
48718;BME280;34521;33.042;-96.586;2023-11-21T03:03:00;99593.54;;;24.44;32.29
48718;BME280;34521;33.042;-96.586;2023-11-21T03:05:25;99596.60;;;24.48;32.22
48718;BME280;34521;33.042;-96.586;2023-11-21T03:07:50;99611.25;;;24.00;32.47
48718;BME280;34521;33.042;-96.586;2023-11-21T03:10:15;99619.08;;;23.93;32.55
48718;BME280;34521;33.042;-96.586;2023-11-21T03:12:40;99629.12;;;24.37;32.25
48718;BME280;34521;33.042;-96.586;2023-11-21T03:15:06;99632.71;;;23.97;32.42
48718;BME280;34521;33.042;-96.586;2023-11-21T03:17:30;99638.78;;;24.27;32.33
48718;BME280;34521;33.042;-96.586;2023-11-21T03:19:55;99645.39;;;24.49;32.30
48718;BME280;34521;33.042;-96.586;2023-11-21T03:22:20;99640.88;;;24.10;32.42
48718;BME280;34521;33.042;-96.586;2023-11-21T03:24:45;99640.46;;;24.43;32.33
48718;BME280;34521;33.042;-96.586;2023-11-21T03:27:10;99639.72;;;22.24;34.54
48718;BME280;34521;33.042;-96.586;2023-11-21T03:29:35;99640.91;;;20.17;38.29
48718;BME280;34521;33.042;-96.586;2023-11-21T03:32:00;99634.93;;;20.08;39.13
48718;BME280;34521;33.042;-96.586;2023-11-21T03:34:26;99638.89;;;20.48;38.60
48718;BME280;34521;33.042;-96.586;2023-11-21T03:36:51;99645.13;;;19.87;39.68
48718;BME280;34521;33.042;-96.586;2023-11-21T03:39:15;99645.71;;;21.44;37.22
48718;BME280;34521;33.042;-96.586;2023-11-21T03:41:40;99647.95;;;22.48;35.35
48718;BME280;34521;33.042;-96.586;2023-11-21T03:44:05;99659.95;;;22.99;33.97
48718;BME280;34521;33.042;-96.586;2023-11-21T03:46:30;99668.47;;;22.86;34.07
48718;BME280;34521;33.042;-96.586;2023-11-21T03:48:55;99679.75;;;23.84;32.78
48718;BME280;34521;33.042;-96.586;2023-11-21T03:51:20;99685.28;;;23.54;33.06
48718;BME280;34521;33.042;-96.586;2023-11-21T03:53:45;99693.06;;;23.74;32.48
48718;BME280;34521;33.042;-96.586;2023-11-21T03:56:10;99692.80;;;24.15;32.24
48718;BME280;34521;33.042;-96.586;2023-11-21T03:58:35;99692.12;;;23.94;32.46
48718;BME280;34521;33.042;-96.586;2023-11-21T04:01:00;99694.90;;;24.28;31.99
48718;BME280;34521;33.042;-96.586;2023-11-21T04:03:25;99694.34;;;23.79;32.58
48718;BME280;34521;33.042;-96.586;2023-11-21T04:05:51;99698.62;;;23.74;32.04
48718;BME280;34521;33.042;-96.586;2023-11-21T04:08:16;99701.07;;;23.68;32.32
48718;BME280;34521;33.042;-96.586;2023-11-21T04:10:40;99705.94;;;23.76;32.20
48718;BME280;34521;33.042;-96.586;2023-11-21T04:13:06;99711.88;;;24.04;32.13
48718;BME280;34521;33.042;-96.586;2023-11-21T04:15:31;99711.13;;;23.98;32.19
48718;BME280;34521;33.042;-96.586;2023-11-21T04:17:55;99709.79;;;23.32;32.43
48718;BME280;34521;33.042;-96.586;2023-11-21T04:20:21;99713.45;;;23.83;32.04
48718;BME280;34521;33.042;-96.586;2023-11-21T04:22:46;99716.38;;;23.47;32.70
48718;BME280;34521;33.042;-96.586;2023-11-21T04:25:13;99715.47;;;23.61;32.51
48718;BME280;34521;33.042;-96.586;2023-11-21T04:27:36;99722.92;;;20.61;36.70
48718;BME280;34521;33.042;-96.586;2023-11-21T04:30:01;99729.03;;;20.45;37.68
48718;BME280;34521;33.042;-96.586;2023-11-21T04:32:26;99733.51;;;19.69;39.14
48718;BME280;34521;33.042;-96.586;2023-11-21T04:34:51;99738.84;;;19.45;39.47
48718;BME280;34521;33.042;-96.586;2023-11-21T04:37:16;99742.28;;;19.52;40.01
48718;BME280;34521;33.042;-96.586;2023-11-21T04:39:41;99742.21;;;21.79;35.48
48718;BME280;34521;33.042;-96.586;2023-11-21T04:42:06;99745.33;;;22.49;34.39
48718;BME280;34521;33.042;-96.586;2023-11-21T04:44:31;99741.27;;;23.20;33.47
48718;BME280;34521;33.042;-96.586;2023-11-21T04:46:56;99746.65;;;23.70;32.48
48718;BME280;34521;33.042;-96.586;2023-11-21T04:49:21;99747.30;;;22.85;33.13
48718;BME280;34521;33.042;-96.586;2023-11-21T04:51:46;99751.55;;;22.96;32.98
48718;BME280;34521;33.042;-96.586;2023-11-21T04:54:11;99753.65;;;22.80;33.11
48718;BME280;34521;33.042;-96.586;2023-11-21T04:56:36;99759.30;;;22.63;33.25
48718;BME280;34521;33.042;-96.586;2023-11-21T04:59:01;99752.94;;;23.42;32.28
48718;BME280;34521;33.042;-96.586;2023-11-21T05:01:26;99755.75;;;23.33;32.43
48718;BME280;34521;33.042;-96.586;2023-11-21T05:03:51;99758.69;;;23.12;32.55
48718;BME280;34521;33.042;-96.586;2023-11-21T05:06:16;99754.64;;;23.63;32.25
48718;BME280;34521;33.042;-96.586;2023-11-21T05:08:41;99755.12;;;23.16;32.42
48718;BME280;34521;33.042;-96.586;2023-11-21T05:11:07;99762.13;;;23.24;32.33
48718;BME280;34521;33.042;-96.586;2023-11-21T05:13:32;99771.95;;;23.21;32.33
48718;BME280;34521;33.042;-96.586;2023-11-21T05:15:56;99768.42;;;23.46;31.99
48718;BME280;34521;33.042;-96.586;2023-11-21T05:18:22;99763.06;;;23.45;31.93
48718;BME280;34521;33.042;-96.586;2023-11-21T05:20:46;99761.06;;;23.32;31.82
48718;BME280;34521;33.042;-96.586;2023-11-21T05:23:12;99760.72;;;23.70;31.57
48718;BME280;34521;33.042;-96.586;2023-11-21T05:25:36;99763.84;;;20.37;35.85
48718;BME280;34521;33.042;-96.586;2023-11-21T05:28:02;99780.60;;;19.58;37.78
48718;BME280;34521;33.042;-96.586;2023-11-21T05:30:26;99782.10;;;19.40;38.34
48718;BME280;34521;33.042;-96.586;2023-11-21T05:32:52;99780.70;;;19.18;38.62
48718;BME280;34521;33.042;-96.586;2023-11-21T05:35:17;99790.71;;;19.04;39.21
48718;BME280;34521;33.042;-96.586;2023-11-21T05:37:42;99791.54;;;21.13;35.99
48718;BME280;34521;33.042;-96.586;2023-11-21T05:40:08;99795.00;;;21.66;34.45
48718;BME280;34521;33.042;-96.586;2023-11-21T05:42:32;99783.89;;;22.67;33.20
48718;BME280;34521;33.042;-96.586;2023-11-21T05:44:57;99806.73;;;22.76;32.96
48718;BME280;34521;33.042;-96.586;2023-11-21T05:47:22;99804.49;;;22.58;32.57
48718;BME280;34521;33.042;-96.586;2023-11-21T05:49:47;99809.78;;;23.04;32.19
48718;BME280;34521;33.042;-96.586;2023-11-21T05:52:12;99818.57;;;23.05;32.13
48718;BME280;34521;33.042;-96.586;2023-11-21T05:54:37;99830.28;;;22.93;31.92
48718;BME280;34521;33.042;-96.586;2023-11-21T05:57:02;99819.92;;;22.91;32.15
48718;BME280;34521;33.042;-96.586;2023-11-21T05:59:27;99822.81;;;22.88;31.95
48718;BME280;34521;33.042;-96.586;2023-11-21T06:01:52;99824.58;;;23.28;31.44
48718;BME280;34521;33.042;-96.586;2023-11-21T06:04:17;99832.09;;;23.36;31.34
48718;BME280;34521;33.042;-96.586;2023-11-21T06:06:43;99841.67;;;23.15;31.55
48718;BME280;34521;33.042;-96.586;2023-11-21T06:09:08;99840.64;;;23.18;31.70
48718;BME280;34521;33.042;-96.586;2023-11-21T06:11:32;99837.93;;;23.35;31.27
48718;BME280;34521;33.042;-96.586;2023-11-21T06:13:57;99839.19;;;23.31;31.26
48718;BME280;34521;33.042;-96.586;2023-11-21T06:16:22;99842.97;;;23.07;31.52
48718;BME280;34521;33.042;-96.586;2023-11-21T06:18:47;99848.07;;;23.08;31.48
48718;BME280;34521;33.042;-96.586;2023-11-21T06:21:13;99851.78;;;22.80;31.77
48718;BME280;34521;33.042;-96.586;2023-11-21T06:23:37;99848.25;;;22.25;32.19
48718;BME280;34521;33.042;-96.586;2023-11-21T06:26:02;99859.21;;;18.97;37.35
48718;BME280;34521;33.042;-96.586;2023-11-21T06:28:28;99854.23;;;19.06;37.86
48718;BME280;34521;33.042;-96.586;2023-11-21T06:30:52;99857.48;;;19.50;37.87
48718;BME280;34521;33.042;-96.586;2023-11-21T06:33:17;99862.36;;;19.67;37.69
48718;BME280;34521;33.042;-96.586;2023-11-21T06:35:42;99862.03;;;19.95;36.98
48718;BME280;34521;33.042;-96.586;2023-11-21T06:38:08;99864.21;;;21.60;34.35
48718;BME280;34521;33.042;-96.586;2023-11-21T06:40:33;99862.36;;;21.91;33.26
48718;BME280;34521;33.042;-96.586;2023-11-21T06:42:57;99863.83;;;22.22;32.53
48718;BME280;34521;33.042;-96.586;2023-11-21T06:45:23;99868.03;;;23.00;31.78
48718;BME280;34521;33.042;-96.586;2023-11-21T06:47:48;99877.26;;;22.77;31.98
48718;BME280;34521;33.042;-96.586;2023-11-21T06:50:14;99876.30;;;22.94;31.75
48718;BME280;34521;33.042;-96.586;2023-11-21T06:52:38;99879.06;;;22.47;31.98
48718;BME280;34521;33.042;-96.586;2023-11-21T06:55:04;99880.40;;;22.60;31.54
48718;BME280;34521;33.042;-96.586;2023-11-21T06:57:28;99890.36;;;22.95;31.41
48718;BME280;34521;33.042;-96.586;2023-11-21T06:59:54;99889.06;;;22.42;31.70
48718;BME280;34521;33.042;-96.586;2023-11-21T07:02:18;99895.99;;;22.80;31.49
48718;BME280;34521;33.042;-96.586;2023-11-21T07:04:43;99902.20;;;23.00;31.53
48718;BME280;34521;33.042;-96.586;2023-11-21T07:07:08;99914.03;;;22.63;31.94
48718;BME280;34521;33.042;-96.586;2023-11-21T07:09:33;99911.49;;;22.77;31.21
48718;BME280;34521;33.042;-96.586;2023-11-21T07:11:58;99914.21;;;22.41;31.57
48718;BME280;34521;33.042;-96.586;2023-11-21T07:14:24;99917.58;;;22.82;31.36
48718;BME280;34521;33.042;-96.586;2023-11-21T07:16:48;99913.92;;;23.12;31.00
48718;BME280;34521;33.042;-96.586;2023-11-21T07:19:14;99910.91;;;22.96;31.10
48718;BME280;34521;33.042;-96.586;2023-11-21T07:21:39;99927.78;;;22.72;31.30
48718;BME280;34521;33.042;-96.586;2023-11-21T07:24:05;99931.08;;;19.16;36.00
48718;BME280;34521;33.042;-96.586;2023-11-21T07:26:28;99943.13;;;19.57;36.51
48718;BME280;34521;33.042;-96.586;2023-11-21T07:28:53;99947.58;;;19.67;36.38
48718;BME280;34521;33.042;-96.586;2023-11-21T07:31:18;99950.82;;;19.06;37.13
48718;BME280;34521;33.042;-96.586;2023-11-21T07:33:43;99963.17;;;18.84;37.69
48718;BME280;34521;33.042;-96.586;2023-11-21T07:36:09;99962.76;;;21.16;34.04
48718;BME280;34521;33.042;-96.586;2023-11-21T07:38:34;99976.23;;;21.64;33.02
48718;BME280;34521;33.042;-96.586;2023-11-21T07:40:58;99976.43;;;21.88;32.37
48718;BME280;34521;33.042;-96.586;2023-11-21T07:43:23;99981.70;;;21.69;32.47
48718;BME280;34521;33.042;-96.586;2023-11-21T07:45:49;99973.60;;;22.42;31.58
48718;BME280;34521;33.042;-96.586;2023-11-21T07:48:13;99986.61;;;22.46;31.17
48718;BME280;34521;33.042;-96.586;2023-11-21T07:50:38;99981.68;;;22.30;31.40
48718;BME280;34521;33.042;-96.586;2023-11-21T07:53:03;99994.85;;;21.96;31.78
48718;BME280;34521;33.042;-96.586;2023-11-21T07:55:28;99993.29;;;22.30;31.42
48718;BME280;34521;33.042;-96.586;2023-11-21T07:57:54;99994.80;;;22.14;31.70
48718;BME280;34521;33.042;-96.586;2023-11-21T08:00:19;99997.13;;;22.81;30.96
48718;BME280;34521;33.042;-96.586;2023-11-21T08:02:44;99997.25;;;22.13;31.74
48718;BME280;34521;33.042;-96.586;2023-11-21T08:05:09;99989.37;;;22.44;31.40
48718;BME280;34521;33.042;-96.586;2023-11-21T08:07:34;99992.76;;;22.01;31.27
48718;BME280;34521;33.042;-96.586;2023-11-21T08:09:59;99988.52;;;21.64;31.95
48718;BME280;34521;33.042;-96.586;2023-11-21T08:12:24;99996.07;;;22.55;31.19
48718;BME280;34521;33.042;-96.586;2023-11-21T08:14:49;100001.26;;;22.26;31.50
48718;BME280;34521;33.042;-96.586;2023-11-21T08:17:14;100001.28;;;22.84;30.53
48718;BME280;34521;33.042;-96.586;2023-11-21T08:19:39;100022.37;;;22.45;30.97
48718;BME280;34521;33.042;-96.586;2023-11-21T08:22:04;100022.69;;;20.22;34.03
48718;BME280;34521;33.042;-96.586;2023-11-21T08:24:34;100018.47;;;19.63;35.29
48718;BME280;34521;33.042;-96.586;2023-11-21T08:26:55;100016.09;;;19.46;35.79
48718;BME280;34521;33.042;-96.586;2023-11-21T08:29:19;100020.85;;;19.12;36.51
48718;BME280;34521;33.042;-96.586;2023-11-21T08:31:44;100021.56;;;19.11;36.80
48718;BME280;34521;33.042;-96.586;2023-11-21T08:34:09;100013.09;;;20.63;34.56
48718;BME280;34521;33.042;-96.586;2023-11-21T08:36:34;100012.24;;;21.19;33.08
48718;BME280;34521;33.042;-96.586;2023-11-21T08:38:59;100004.22;;;22.11;31.96
48718;BME280;34521;33.042;-96.586;2023-11-21T08:41:24;100007.69;;;21.49;32.01
48718;BME280;34521;33.042;-96.586;2023-11-21T08:43:50;100009.19;;;21.92;31.47
48718;BME280;34521;33.042;-96.586;2023-11-21T08:46:14;100012.60;;;22.34;30.98
48718;BME280;34521;33.042;-96.586;2023-11-21T08:48:41;100011.62;;;22.41;30.82
48718;BME280;34521;33.042;-96.586;2023-11-21T08:51:05;100007.02;;;22.19;31.06
48718;BME280;34521;33.042;-96.586;2023-11-21T08:53:30;100013.39;;;22.39;30.86
48718;BME280;34521;33.042;-96.586;2023-11-21T08:55:54;100017.00;;;22.04;31.22
48718;BME280;34521;33.042;-96.586;2023-11-21T08:58:20;100013.68;;;21.92;31.32
48718;BME280;34521;33.042;-96.586;2023-11-21T09:00:45;100018.64;;;22.04;30.73
48718;BME280;34521;33.042;-96.586;2023-11-21T09:03:09;100018.49;;;22.19;30.99
48718;BME280;34521;33.042;-96.586;2023-11-21T09:05:37;100024.99;;;21.82;31.46
48718;BME280;34521;33.042;-96.586;2023-11-21T09:08:00;100017.70;;;21.94;31.26
48718;BME280;34521;33.042;-96.586;2023-11-21T09:10:25;100026.34;;;21.87;31.25
48718;BME280;34521;33.042;-96.586;2023-11-21T09:12:50;100024.75;;;21.35;31.83
48718;BME280;34521;33.042;-96.586;2023-11-21T09:15:15;100020.32;;;21.96;30.84
48718;BME280;34521;33.042;-96.586;2023-11-21T09:17:40;100037.32;;;22.46;30.56
48718;BME280;34521;33.042;-96.586;2023-11-21T09:20:06;100037.22;;;21.99;31.02
48718;BME280;34521;33.042;-96.586;2023-11-21T09:22:30;100040.32;;;20.12;34.25
48718;BME280;34521;33.042;-96.586;2023-11-21T09:24:55;100043.68;;;19.28;35.27
48718;BME280;34521;33.042;-96.586;2023-11-21T09:27:20;100043.08;;;19.79;35.23
48718;BME280;34521;33.042;-96.586;2023-11-21T09:29:45;100045.41;;;18.85;36.06
48718;BME280;34521;33.042;-96.586;2023-11-21T09:32:10;100045.06;;;18.95;35.97
48718;BME280;34521;33.042;-96.586;2023-11-21T09:34:35;100033.06;;;20.54;33.22
48718;BME280;34521;33.042;-96.586;2023-11-21T09:37:00;100044.70;;;21.61;31.89
48718;BME280;34521;33.042;-96.586;2023-11-21T09:39:26;100054.20;;;21.84;31.26
48718;BME280;34521;33.042;-96.586;2023-11-21T09:41:51;100061.27;;;21.20;31.98
48718;BME280;34521;33.042;-96.586;2023-11-21T09:44:22;100057.79;;;21.48;31.33
48718;BME280;34521;33.042;-96.586;2023-11-21T09:46:43;100051.59;;;21.62;31.11
48718;BME280;34521;33.042;-96.586;2023-11-21T09:49:06;100055.57;;;22.11;30.60
48718;BME280;34521;33.042;-96.586;2023-11-21T09:51:32;100062.60;;;22.34;30.50
48718;BME280;34521;33.042;-96.586;2023-11-21T09:53:57;100055.13;;;22.02;30.58
48718;BME280;34521;33.042;-96.586;2023-11-21T09:56:21;100057.44;;;21.91;30.64
48718;BME280;34521;33.042;-96.586;2023-11-21T09:58:46;100061.25;;;21.87;30.96
48718;BME280;34521;33.042;-96.586;2023-11-21T10:01:12;100066.27;;;21.84;30.77
48718;BME280;34521;33.042;-96.586;2023-11-21T10:03:36;100066.40;;;21.36;31.29
48718;BME280;34521;33.042;-96.586;2023-11-21T10:06:02;100068.54;;;21.63;30.89
48718;BME280;34521;33.042;-96.586;2023-11-21T10:08:26;100066.78;;;22.00;30.46
48718;BME280;34521;33.042;-96.586;2023-11-21T10:10:54;100078.49;;;21.47;30.77
48718;BME280;34521;33.042;-96.586;2023-11-21T10:13:17;100086.41;;;21.61;30.62
48718;BME280;34521;33.042;-96.586;2023-11-21T10:15:42;100092.12;;;22.24;30.15
48718;BME280;34521;33.042;-96.586;2023-11-21T10:18:08;100093.31;;;21.76;30.64
48718;BME280;34521;33.042;-96.586;2023-11-21T10:20:33;100105.37;;;19.24;34.14
48718;BME280;34521;33.042;-96.586;2023-11-21T10:22:56;100097.46;;;18.98;35.09
48718;BME280;34521;33.042;-96.586;2023-11-21T10:25:21;100102.82;;;18.78;35.34
48718;BME280;34521;33.042;-96.586;2023-11-21T10:27:48;100110.10;;;18.93;35.09
48718;BME280;34521;33.042;-96.586;2023-11-21T10:30:11;100109.69;;;19.23;34.94
48718;BME280;34521;33.042;-96.586;2023-11-21T10:32:36;100115.51;;;20.48;32.77
48718;BME280;34521;33.042;-96.586;2023-11-21T10:35:01;100106.35;;;21.13;31.76
48718;BME280;34521;33.042;-96.586;2023-11-21T10:37:26;100118.65;;;21.36;31.41
48718;BME280;34521;33.042;-96.586;2023-11-21T10:39:55;100111.78;;;21.66;30.63
48718;BME280;34521;33.042;-96.586;2023-11-21T10:42:18;100116.52;;;22.31;30.29
48718;BME280;34521;33.042;-96.586;2023-11-21T10:44:42;100114.58;;;22.44;29.78
48718;BME280;34521;33.042;-96.586;2023-11-21T10:47:09;100120.25;;;22.19;30.01
48718;BME280;34521;33.042;-96.586;2023-11-21T10:49:32;100110.64;;;22.06;30.10
48718;BME280;34521;33.042;-96.586;2023-11-21T10:51:57;100105.33;;;22.66;29.39
48718;BME280;34521;33.042;-96.586;2023-11-21T10:54:22;100110.93;;;22.39;29.37
48718;BME280;34521;33.042;-96.586;2023-11-21T10:56:49;100105.51;;;22.24;29.76
48718;BME280;34521;33.042;-96.586;2023-11-21T10:59:12;100114.79;;;21.87;30.08
48718;BME280;34521;33.042;-96.586;2023-11-21T11:01:37;100114.75;;;21.82;30.20
48718;BME280;34521;33.042;-96.586;2023-11-21T11:04:04;100120.61;;;21.89;30.14
48718;BME280;34521;33.042;-96.586;2023-11-21T11:06:28;100131.65;;;21.79;30.27
48718;BME280;34521;33.042;-96.586;2023-11-21T11:08:52;100136.63;;;22.29;29.64
48718;BME280;34521;33.042;-96.586;2023-11-21T11:11:17;100144.90;;;22.32;29.58
48718;BME280;34521;33.042;-96.586;2023-11-21T11:13:44;100142.59;;;21.87;30.09
48718;BME280;34521;33.042;-96.586;2023-11-21T11:16:14;100150.57;;;21.45;30.27
48718;BME280;34521;33.042;-96.586;2023-11-21T11:18:32;100147.35;;;21.96;29.97
48718;BME280;34521;33.042;-96.586;2023-11-21T11:21:05;100148.33;;;22.23;29.61
48718;BME280;34521;33.042;-96.586;2023-11-21T11:23:31;100151.58;;;19.83;32.69
48718;BME280;34521;33.042;-96.586;2023-11-21T11:25:59;100159.58;;;18.99;34.20
48718;BME280;34521;33.042;-96.586;2023-11-21T11:28:17;100158.95;;;19.01;34.37
48718;BME280;34521;33.042;-96.586;2023-11-21T11:30:45;100154.73;;;20.19;33.05
48718;BME280;34521;33.042;-96.586;2023-11-21T11:33:09;100162.06;;;20.70;31.99
48718;BME280;34521;33.042;-96.586;2023-11-21T11:35:34;100161.95;;;21.86;30.30
48718;BME280;34521;33.042;-96.586;2023-11-21T11:37:52;100164.65;;;21.39;30.81
48718;BME280;34521;33.042;-96.586;2023-11-21T11:40:18;100166.04;;;21.47;30.48
48718;BME280;34521;33.042;-96.586;2023-11-21T11:42:56;100167.66;;;22.03;29.79
48718;BME280;34521;33.042;-96.586;2023-11-21T11:47:34;100172.82;;;22.05;29.99
48718;BME280;34521;33.042;-96.586;2023-11-21T11:50:01;100176.41;;;21.40;30.20
48718;BME280;34521;33.042;-96.586;2023-11-21T11:52:34;100184.43;;;21.79;29.86
48718;BME280;34521;33.042;-96.586;2023-11-21T11:54:49;100183.43;;;21.97;29.73
48718;BME280;34521;33.042;-96.586;2023-11-21T11:57:14;100192.77;;;22.13;29.25
48718;BME280;34521;33.042;-96.586;2023-11-21T12:02:05;100195.13;;;21.92;29.60
48718;BME280;34521;33.042;-96.586;2023-11-21T12:04:28;100198.31;;;21.93;29.62
48718;BME280;34521;33.042;-96.586;2023-11-21T12:06:53;100200.66;;;22.41;29.03
48718;BME280;34521;33.042;-96.586;2023-11-21T12:09:20;100198.60;;;22.19;29.03
48718;BME280;34521;33.042;-96.586;2023-11-21T12:11:43;100182.29;;;21.56;29.89
48718;BME280;34521;33.042;-96.586;2023-11-21T12:14:08;100206.96;;;21.55;29.62
48718;BME280;34521;33.042;-96.586;2023-11-21T12:16:33;100211.43;;;21.61;29.76
48718;BME280;34521;33.042;-96.586;2023-11-21T12:18:58;100213.88;;;21.76;29.88
48718;BME280;34521;33.042;-96.586;2023-11-21T12:21:23;100220.39;;;21.64;29.73
48718;BME280;34521;33.042;-96.586;2023-11-21T12:23:48;100233.37;;;18.60;34.00
48718;BME280;34521;33.042;-96.586;2023-11-21T12:26:13;100243.23;;;18.10;35.03
48718;BME280;34521;33.042;-96.586;2023-11-21T12:28:38;100243.84;;;18.39;34.59